Terminal Aerodrome Forecast
Issued by NWS Grand Forks, ND

Home | Current Version | Previous Version | Text Only | Print | Product List | Glossary Off
Versions: 1 2 3 4 5 6 7 8 9 10 11 12 13 14 15

774
FTUS43 KFGF 171439 AAA
TAFFAR
TAF AMD
KFAR 171439Z 1715/1812 35012KT P6SM BKN015
      TEMPO 1715/1717 SCT015
     FM171700 34010KT P6SM SCT020
     FM171800 34009KT P6SM FEW150
     FM180700 18004KT P6SM SCT200=

USA.gov is the U.S. government's official web portal to all federal, state and local government web resources and services.